Time;durP1;ratioP1;P1;durP2;ratioP2;P2;SDS_P1;SDS_P2;PMS_P1;PMS_P2;Temp;Humidity;BMP_temperature;BMP_pressure;BME280_temperature;BME280_humidity;BME280_pressure;Samples;Min_cycle;Max_cycle;Signal;HPM_P1;HPM_P2
2023/09/20 00:01:04;;;;;;;0.00;0.00;;;16.00;99.90;;;;;;5091298;28;20259;-71
2023/09/20 00:03:30;;;;;;;0.00;0.00;;;15.90;99.90;;;;;;5090947;28;20573;-71
2023/09/20 00:05:56;;;;;;;0.00;0.00;;;15.80;99.90;;;;;;5091078;28;20196;-71
2023/09/20 00:08:22;;;;;;;0.00;0.00;;;15.80;99.90;;;;;;5090766;28;20172;-71
2023/09/20 00:10:47;;;;;;;0.00;0.00;;;15.90;99.90;;;;;;5088960;28;20180;-71
2023/09/20 00:13:13;;;;;;;0.00;0.00;;;15.80;99.90;;;;;;5090623;28;20271;-71
2023/09/20 00:15:45;;;;;;;0.00;0.00;;;15.80;99.90;;;;;;5091166;28;20607;-71
2023/09/20 00:18:11;;;;;;;0.00;0.00;;;15.80;99.90;;;;;;5091123;28;20249;-71
2023/09/20 00:20:37;;;;;;;0.00;0.00;;;15.80;99.90;;;;;;5090828;28;20184;-71
2023/09/20 00:23:03;;;;;;;0.00;0.00;;;15.80;99.90;;;;;;5091157;28;20176;-72
2023/09/20 00:25:29;;;;;;;0.00;0.00;;;15.80;99.90;;;;;;5091074;28;20207;-71
2023/09/20 00:27:54;;;;;;;0.00;0.00;;;15.90;99.90;;;;;;5090668;28;20670;-71
2023/09/20 00:30:20;;;;;;;0.00;0.00;;;15.90;99.90;;;;;;5090478;28;20654;-71
2023/09/20 00:32:46;;;;;;;0.00;0.00;;;15.90;99.90;;;;;;5090744;28;20211;-71
2023/09/20 00:35:19;;;;;;;0.00;0.00;;;15.90;99.90;;;;;;5090887;28;20211;-71
2023/09/20 00:37:45;;;;;;;0.00;0.00;;;15.90;99.90;;;;;;5090970;28;20219;-71
2023/09/20 00:40:16;;;;;;;0.00;0.00;;;16.00;99.90;;;;;;5090924;28;20176;-71
2023/09/20 00:42:43;;;;;;;0.00;0.00;;;15.90;99.90;;;;;;5090247;28;20213;-71
2023/09/20 00:45:09;;;;;;;0.00;0.00;;;15.90;99.90;;;;;;5090506;28;20219;-70
2023/09/20 00:47:40;;;;;;;0.00;0.00;;;15.90;99.90;;;;;;5089730;28;20233;-71
2023/09/20 00:50:11;;;;;;;0.00;0.00;;;15.90;99.90;;;;;;5090508;28;20644;-71
2023/09/20 00:52:41;;;;;;;0.00;0.00;;;15.90;99.90;;;;;;5090509;28;20655;-70
2023/09/20 00:55:15;;;;;;;0.00;0.00;;;15.90;99.90;;;;;;5090344;28;20216;-70
2023/09/20 00:57:47;;;;;;;0.00;0.00;;;15.80;99.90;;;;;;5090932;28;20176;-71
2023/09/20 01:00:21;;;;;;;0.00;0.00;;;15.80;99.90;;;;;;5090638;28;20546;-71
2023/09/20 01:02:49;;;;;;;0.00;0.00;;;15.80;99.90;;;;;;5090185;28;20207;-71
2023/09/20 01:05:18;;;;;;;0.00;0.00;;;15.80;99.90;;;;;;5090424;28;20521;-71
2023/09/20 01:07:46;;;;;;;0.00;0.00;;;15.80;99.90;;;;;;5090650;28;20590;-71
2023/09/20 01:10:12;;;;;;;0.00;0.00;;;15.70;99.90;;;;;;5090491;28;20197;-71
2023/09/20 01:12:38;;;;;;;0.00;0.00;;;15.70;99.90;;;;;;5090504;28;20176;-71
2023/09/20 01:15:05;;;;;;;0.00;0.00;;;15.60;99.90;;;;;;5090437;28;20176;-71
2023/09/20 01:17:30;;;;;;;0.00;0.00;;;15.60;99.90;;;;;;5090706;28;20172;-71
2023/09/20 01:19:56;;;;;;;0.00;0.00;;;15.50;99.90;;;;;;5090762;28;20258;-71
2023/09/20 01:22:21;;;;;;;0.00;0.00;;;15.50;99.90;;;;;;5090526;28;20172;-71
2023/09/20 01:24:47;;;;;;;0.25;0.25;;;15.50;99.90;;;;;;5092958;28;20211;-71
2023/09/20 01:27:13;;;;;;;0.00;0.00;;;15.40;99.90;;;;;;5103792;28;20259;-71
2023/09/20 01:29:39;;;;;;;0.00;0.00;;;15.40;99.90;;;;;;5089298;28;20226;-71
2023/09/20 01:32:04;;;;;;;0.00;0.00;;;15.40;99.90;;;;;;5090047;28;20870;-71
2023/09/20 01:34:31;;;;;;;0.00;0.00;;;15.40;99.90;;;;;;5092843;28;20212;-71
2023/09/20 01:36:58;;;;;;;0.00;0.00;;;15.40;99.90;;;;;;5094187;28;20303;-70
2023/09/20 01:39:24;;;;;;;0.05;0.05;;;15.40;99.90;;;;;;5094025;28;20229;-71
2023/09/20 01:41:50;;;;;;;0.10;0.10;;;15.40;99.90;;;;;;5093422;28;20188;-70
2023/09/20 01:44:16;;;;;;;0.00;0.00;;;15.40;99.90;;;;;;5093995;28;20180;-71
2023/09/20 01:46:41;;;;;;;0.00;0.00;;;15.50;99.90;;;;;;5093711;28;20191;-70
2023/09/20 01:49:08;;;;;;;0.00;0.00;;;15.40;99.90;;;;;;5093626;28;20176;-70
2023/09/20 01:51:33;;;;;;;0.00;0.00;;;15.50;99.90;;;;;;5094132;28;20190;-70
2023/09/20 01:53:59;;;;;;;0.00;0.00;;;15.50;99.90;;;;;;5093957;28;20263;-71
2023/09/20 01:56:26;;;;;;;0.00;0.00;;;15.50;99.90;;;;;;5094079;28;20739;-71
2023/09/20 01:58:51;;;;;;;0.00;0.00;;;15.50;99.90;;;;;;5093642;28;20559;-70
2023/09/20 02:01:17;;;;;;;0.00;0.00;;;15.40;99.90;;;;;;5094095;28;20187;-71
2023/09/20 02:03:43;;;;;;;0.00;0.00;;;15.50;99.90;;;;;;5093744;28;20226;-70
2023/09/20 02:06:09;;;;;;;0.00;0.00;;;15.50;99.90;;;;;;5093175;28;20188;-70
2023/09/20 02:08:35;;;;;;;0.00;0.00;;;15.50;99.90;;;;;;5087421;28;20716;-70
2023/09/20 02:11:01;;;;;;;0.00;0.00;;;15.40;99.90;;;;;;5093324;28;20192;-70
2023/09/20 02:13:26;;;;;;;0.00;0.00;;;15.40;99.90;;;;;;5093443;28;20226;-71
2023/09/20 02:15:53;;;;;;;0.00;0.00;;;15.40;99.90;;;;;;5093476;28;20721;-71
2023/09/20 02:18:19;;;;;;;0.00;0.00;;;15.40;99.90;;;;;;5094071;28;20199;-71
2023/09/20 02:20:44;;;;;;;0.00;0.00;;;15.40;99.90;;;;;;5098895;28;20215;-71
2023/09/20 02:23:15;;;;;;;0.00;0.00;;;15.30;99.90;;;;;;5094379;28;20581;-71
2023/09/20 02:25:41;;;;;;;0.00;0.00;;;15.30;99.90;;;;;;5093702;28;20647;-71
2023/09/20 02:28:07;;;;;;;0.00;0.00;;;15.30;99.90;;;;;;5092788;28;20184;-71
2023/09/20 02:30:35;;;;;;;0.00;0.00;;;15.30;99.90;;;;;;5092543;28;20219;-70
2023/09/20 02:33:05;;;;;;;0.00;0.00;;;15.30;99.90;;;;;;5077646;28;20184;-71
2023/09/20 02:35:32;;;;;;;0.00;0.00;;;15.20;99.90;;;;;;5092843;28;20200;-70
2023/09/20 02:37:59;;;;;;;0.00;0.00;;;15.20;99.90;;;;;;5092885;28;20715;-71
2023/09/20 02:40:26;;;;;;;0.00;0.00;;;15.20;99.90;;;;;;5092886;28;20531;-70
2023/09/20 02:42:54;;;;;;;0.00;0.00;;;15.20;99.90;;;;;;5082959;28;20613;-70
2023/09/20 02:45:20;;;;;;;0.00;0.00;;;15.20;99.90;;;;;;5091816;28;20184;-71
2023/09/20 02:47:47;;;;;;;0.00;0.00;;;15.20;99.90;;;;;;5092631;28;20180;-70
2023/09/20 02:50:16;;;;;;;0.00;0.00;;;15.20;99.90;;;;;;5092505;28;20392;-71
2023/09/20 02:52:45;;;;;;;0.00;0.00;;;15.10;99.90;;;;;;5092263;28;20298;-70
2023/09/20 02:55:15;;;;;;;0.00;0.00;;;15.10;99.90;;;;;;5092451;28;20660;-70
2023/09/20 02:57:42;;;;;;;0.00;0.00;;;15.10;99.90;;;;;;5092503;28;20537;-70
2023/09/20 03:00:14;;;;;;;0.00;0.00;;;15.10;99.90;;;;;;5092303;28;20606;-71
2023/09/20 03:02:45;;;;;;;0.00;0.00;;;15.10;99.90;;;;;;5092268;28;20176;-71
2023/09/20 03:05:16;;;;;;;0.00;0.00;;;15.10;99.90;;;;;;5092070;28;20181;-70
2023/09/20 03:07:49;;;;;;;0.00;0.00;;;15.10;99.90;;;;;;5092453;28;20173;-70
2023/09/20 03:10:16;;;;;;;0.00;0.00;;;15.00;99.90;;;;;;5091394;28;20270;-70
2023/09/20 03:12:44;;;;;;;0.00;0.00;;;15.00;99.90;;;;;;5092093;28;20251;-71
2023/09/20 03:15:23;;;;;;;0.00;0.00;;;15.00;99.90;;;;;;5089670;28;20216;-71
2023/09/20 03:17:53;;;;;;;0.00;0.00;;;14.90;99.90;;;;;;5092043;28;20203;-71
2023/09/20 03:20:24;;;;;;;0.00;0.00;;;14.90;99.90;;;;;;5092509;28;20264;-70
2023/09/20 03:22:54;;;;;;;0.00;0.00;;;14.90;99.90;;;;;;5092183;28;20172;-69
2023/09/20 03:25:21;;;;;;;0.00;0.00;;;14.90;99.90;;;;;;5096550;28;20179;-70
2023/09/20 03:27:48;;;;;;;0.00;0.00;;;14.90;99.90;;;;;;5099715;28;20176;-70
2023/09/20 03:30:14;;;;;;;0.00;0.00;;;14.80;99.90;;;;;;5091491;28;20651;-70
2023/09/20 03:32:42;;;;;;;0.00;0.00;;;14.80;99.90;;;;;;5092011;28;20241;-69
2023/09/20 03:35:10;;;;;;;0.00;0.00;;;14.80;99.90;;;;;;5099634;28;20183;-70
2023/09/20 03:37:37;;;;;;;0.00;0.00;;;14.70;99.90;;;;;;5092158;28;20183;-70
2023/09/20 03:40:06;;;;;;;0.00;0.00;;;14.70;99.90;;;;;;5090787;28;20168;-70
2023/09/20 03:42:32;;;;;;;0.00;0.00;;;14.60;99.90;;;;;;5086264;28;20244;-71
2023/09/20 03:44:58;;;;;;;0.00;0.00;;;14.60;99.90;;;;;;5091354;28;20191;-67
2023/09/20 03:47:28;;;;;;;0.00;0.00;;;14.50;99.90;;;;;;5090817;28;20187;-69
2023/09/20 03:49:53;;;;;;;0.00;0.00;;;14.50;99.90;;;;;;5092053;28;20176;-69
2023/09/20 03:52:19;;;;;;;0.00;0.00;;;14.50;99.90;;;;;;5090641;28;20197;-69
2023/09/20 03:54:51;;;;;;;0.00;0.00;;;14.40;99.90;;;;;;5091951;28;20575;-68
2023/09/20 03:57:19;;;;;;;0.00;0.00;;;14.50;99.90;;;;;;5094239;28;20195;-67
2023/09/20 03:59:47;;;;;;;0.00;0.00;;;14.50;99.90;;;;;;5112480;28;20220;-67
2023/09/20 04:02:14;;;;;;;0.00;0.00;;;14.50;99.90;;;;;;5096968;28;20241;-74
2023/09/20 04:04:40;;;;;;;0.00;0.00;;;14.50;99.90;;;;;;5091757;28;20176;-69
2023/09/20 04:07:06;;;;;;;0.00;0.00;;;14.40;99.90;;;;;;5090714;28;20682;-68
2023/09/20 04:09:32;;;;;;;0.00;0.00;;;14.40;99.90;;;;;;5091437;28;20184;-68
2023/09/20 04:11:59;;;;;;;0.00;0.00;;;14.40;99.90;;;;;;5091585;28;20184;-68
2023/09/20 04:14:25;;;;;;;0.00;0.00;;;14.40;99.90;;;;;;5091541;28;20182;-68
2023/09/20 04:16:53;;;;;;;0.00;0.00;;;14.30;99.90;;;;;;5091833;28;20254;-68
2023/09/20 04:19:21;;;;;;;0.00;0.00;;;14.30;99.90;;;;;;5091870;28;20206;-68
2023/09/20 04:21:50;;;;;;;0.00;0.00;;;14.30;99.90;;;;;;5091446;28;20190;-68
2023/09/20 04:24:16;;;;;;;0.00;0.00;;;14.30;99.90;;;;;;5091814;28;20180;-67
2023/09/20 04:26:41;;;;;;;0.10;0.10;;;14.30;99.90;;;;;;5091785;28;20175;-67
2023/09/20 04:29:07;;;;;;;0.00;0.00;;;14.30;99.90;;;;;;5091645;28;20259;-67
2023/09/20 04:31:33;;;;;;;0.00;0.00;;;14.30;99.90;;;;;;5091983;28;20701;-68
2023/09/20 04:34:02;;;;;;;0.00;0.00;;;14.30;99.90;;;;;;5091657;28;20208;-69
2023/09/20 04:36:28;;;;;;;0.00;0.00;;;14.30;99.90;;;;;;5091473;28;20204;-69
2023/09/20 04:38:55;;;;;;;0.00;0.00;;;14.20;99.90;;;;;;5091549;28;20654;-69
2023/09/20 04:41:21;;;;;;;0.00;0.00;;;14.20;99.90;;;;;;5091682;28;20667;-69
2023/09/20 04:43:47;;;;;;;0.00;0.00;;;14.20;99.90;;;;;;5091448;28;20192;-69
2023/09/20 04:46:13;;;;;;;0.00;0.00;;;14.20;99.90;;;;;;5091479;28;20176;-69
2023/09/20 04:48:41;;;;;;;0.00;0.00;;;14.20;99.90;;;;;;5091562;28;20172;-69
2023/09/20 04:51:08;;;;;;;0.00;0.00;;;14.20;99.90;;;;;;5091377;28;20180;-69
2023/09/20 04:53:34;;;;;;;0.10;0.10;;;14.20;99.90;;;;;;5091624;28;20577;-69
2023/09/20 04:56:00;;;;;;;0.00;0.00;;;14.20;99.90;;;;;;5091417;28;20215;-69
2023/09/20 04:58:26;;;;;;;0.00;0.00;;;14.10;99.90;;;;;;5091335;28;20279;-69
2023/09/20 05:00:52;;;;;;;0.00;0.00;;;14.10;99.90;;;;;;5090240;28;20266;-70
2023/09/20 05:03:19;;;;;;;0.00;0.00;;;14.10;99.90;;;;;;5091470;28;20204;-70
2023/09/20 05:05:47;;;;;;;0.00;0.00;;;14.10;99.90;;;;;;5091453;28;20177;-69
2023/09/20 05:08:15;;;;;;;0.00;0.00;;;14.10;99.90;;;;;;5092361;28;20184;-69
2023/09/20 05:10:44;;;;;;;0.00;0.00;;;14.10;99.90;;;;;;5095362;28;20176;-69
2023/09/20 05:13:10;;;;;;;0.00;0.00;;;14.10;99.90;;;;;;5094302;28;20232;-69
2023/09/20 05:15:37;;;;;;;0.00;0.00;;;14.10;99.90;;;;;;5094941;28;20294;-69
2023/09/20 05:18:04;;;;;;;0.00;0.00;;;14.20;99.90;;;;;;5095023;28;20176;-69
2023/09/20 05:20:31;;;;;;;0.10;0.10;;;14.20;99.90;;;;;;5094747;28;20195;-69
2023/09/20 05:22:58;;;;;;;0.00;0.00;;;14.20;99.90;;;;;;5094558;28;20176;-69
2023/09/20 05:25:23;;;;;;;0.10;0.10;;;14.30;99.90;;;;;;5094534;28;20184;-69
2023/09/20 05:27:49;;;;;;;0.00;0.00;;;14.30;99.90;;;;;;5094404;28;20251;-69
2023/09/20 05:30:16;;;;;;;0.00;0.00;;;14.40;99.90;;;;;;5094341;28;20188;-69
2023/09/20 05:32:43;;;;;;;0.00;0.00;;;14.40;99.90;;;;;;5094542;28;20647;-69
2023/09/20 05:35:11;;;;;;;0.00;0.00;;;14.50;99.90;;;;;;5094228;28;20674;-69
2023/09/20 05:37:38;;;;;;;0.00;0.00;;;14.60;99.90;;;;;;5094464;28;20191;-69
2023/09/20 05:40:07;;;;;;;0.00;0.00;;;14.60;99.90;;;;;;5094319;28;20176;-69
2023/09/20 05:42:32;;;;;;;0.32;0.32;;;14.70;99.90;;;;;;5094266;28;20568;-69
2023/09/20 05:44:58;;;;;;;0.00;0.00;;;14.70;99.90;;;;;;5094253;28;20243;-69
2023/09/20 05:47:24;;;;;;;0.00;0.00;;;14.80;99.90;;;;;;5094377;28;20180;-70
2023/09/20 05:49:49;;;;;;;0.00;0.00;;;14.90;99.90;;;;;;5094126;28;20600;-71
2023/09/20 05:52:15;;;;;;;0.00;0.00;;;15.00;99.90;;;;;;5094242;28;20190;-69
2023/09/20 05:54:44;;;;;;;0.00;0.00;;;15.10;99.90;;;;;;5093977;28;20185;-69
2023/09/20 05:57:09;;;;;;;0.00;0.00;;;15.20;99.90;;;;;;5093671;28;20273;-69
2023/09/20 05:59:35;;;;;;;0.10;0.10;;;15.30;99.90;;;;;;5094021;28;20200;-69
2023/09/20 06:02:00;;;;;;;0.00;0.00;;;15.50;99.90;;;;;;5093921;28;20215;-69
2023/09/20 06:04:26;;;;;;;0.00;0.00;;;15.60;99.90;;;;;;5093753;28;20194;-69
2023/09/20 06:06:54;;;;;;;0.00;0.00;;;15.70;99.90;;;;;;5093796;28;20233;-68
2023/09/20 06:09:19;;;;;;;0.00;0.00;;;15.90;99.90;;;;;;5093923;28;20169;-72
2023/09/20 06:11:45;;;;;;;0.00;0.00;;;16.10;99.90;;;;;;5094184;28;20236;-71
2023/09/20 06:14:10;;;;;;;0.00;0.00;;;16.40;99.90;;;;;;5093883;28;20654;-71
2023/09/20 06:16:36;;;;;;;0.03;0.03;;;16.70;99.90;;;;;;5094063;28;20211;-71
2023/09/20 06:19:02;;;;;;;0.00;0.00;;;17.10;99.90;;;;;;5093746;28;20172;-71
2023/09/20 06:21:28;;;;;;;0.00;0.00;;;17.50;99.90;;;;;;5093963;28;20179;-71
2023/09/20 06:23:54;;;;;;;0.00;0.00;;;18.10;99.90;;;;;;5093983;28;20164;-71
2023/09/20 06:26:19;;;;;;;0.00;0.00;;;18.70;99.90;;;;;;5093830;28;20180;-71
2023/09/20 06:28:45;;;;;;;0.00;0.00;;;19.10;99.90;;;;;;5093857;28;20208;-71
2023/09/20 06:31:15;;;;;;;0.00;0.00;;;19.70;99.90;;;;;;5093607;28;20234;-71
2023/09/20 06:33:43;;;;;;;0.00;0.00;;;20.20;99.90;;;;;;5093757;28;20180;-71
2023/09/20 06:36:08;;;;;;;0.00;0.00;;;20.90;99.90;;;;;;5093430;28;20215;-71
2023/09/20 06:38:34;;;;;;;0.00;0.00;;;21.50;99.90;;;;;;5093749;28;20638;-71
2023/09/20 06:41:00;;;;;;;0.00;0.00;;;21.90;99.90;;;;;;5093559;28;20184;-71
2023/09/20 06:43:26;;;;;;;0.00;0.00;;;22.30;99.80;;;;;;5093551;28;20627;-71
2023/09/20 06:45:52;;;;;;;0.00;0.00;;;22.50;99.30;;;;;;5093482;28;20181;-71
2023/09/20 06:48:22;;;;;;;0.00;0.00;;;22.60;99.10;;;;;;5093595;28;20643;-71
2023/09/20 06:50:52;;;;;;;0.00;0.00;;;22.50;98.70;;;;;;5093346;28;20526;-71
2023/09/20 06:53:18;;;;;;;0.00;0.00;;;22.30;98.60;;;;;;5093546;28;20164;-71
2023/09/20 06:55:45;;;;;;;0.00;0.00;;;22.20;98.30;;;;;;5093399;28;20345;-71
2023/09/20 06:58:11;;;;;;;0.00;0.00;;;22.20;98.70;;;;;;5093245;28;20187;-71
2023/09/20 07:00:37;;;;;;;0.00;0.00;;;22.00;99.00;;;;;;5093271;28;20199;-71
2023/09/20 07:03:03;;;;;;;0.00;0.00;;;22.00;99.30;;;;;;5093228;28;20179;-72
2023/09/20 07:05:30;;;;;;;0.00;0.00;;;22.10;98.70;;;;;;5093256;28;20605;-71
2023/09/20 07:07:58;;;;;;;0.00;0.00;;;22.20;98.60;;;;;;5093087;28;20188;-70
2023/09/20 07:10:25;;;;;;;0.00;0.00;;;22.20;98.50;;;;;;5093087;28;20183;-70
2023/09/20 07:12:53;;;;;;;0.00;0.00;;;22.10;98.30;;;;;;5092911;28;20203;-70
2023/09/20 07:15:20;;;;;;;0.00;0.00;;;22.10;98.50;;;;;;5091542;28;20203;-71
2023/09/20 07:17:50;;;;;;;0.00;0.00;;;22.00;98.90;;;;;;5092920;28;20180;-70
2023/09/20 07:20:18;;;;;;;0.00;0.00;;;21.90;99.00;;;;;;5093147;28;20221;-71
2023/09/20 07:22:47;;;;;;;0.00;0.00;;;21.80;99.20;;;;;;5092943;28;20180;-71
2023/09/20 07:25:19;;;;;;;0.20;0.15;;;21.70;99.30;;;;;;5092773;28;20229;-70
2023/09/20 07:27:55;;;;;;;0.00;0.00;;;21.70;99.50;;;;;;5091557;28;20543;-71
2023/09/20 07:30:22;;;;;;;0.00;0.00;;;21.70;99.50;;;;;;5092071;28;20662;-71
2023/09/20 07:32:50;;;;;;;0.00;0.00;;;21.70;99.10;;;;;;5092368;28;20216;-70
2023/09/20 07:36:17;;;;;;;0.00;0.00;;;21.70;99.20;;;;;;5092472;28;20172;-71
2023/09/20 07:38:27;;;;;;;0.00;0.00;;;21.70;99.40;;;;;;5087372;28;20534;-70
2023/09/20 07:41:02;;;;;;;0.00;0.00;;;21.80;99.40;;;;;;5092414;28;20168;-71
2023/09/20 07:43:28;;;;;;;0.00;0.00;;;21.80;98.70;;;;;;5092278;28;20256;-70
2023/09/20 07:45:54;;;;;;;0.00;0.00;;;21.80;98.70;;;;;;5092479;28;20160;-70
2023/09/20 07:48:21;;;;;;;0.00;0.00;;;21.90;99.00;;;;;;5092345;28;20184;-71
2023/09/20 07:50:51;;;;;;;0.00;0.00;;;21.90;98.00;;;;;;5092347;28;20217;-70
2023/09/20 07:53:18;;;;;;;0.00;0.00;;;22.10;97.50;;;;;;5091073;28;20232;-70
2023/09/20 07:55:45;;;;;;;0.00;0.00;;;22.30;98.00;;;;;;5092077;28;20207;-70
2023/09/20 07:58:14;;;;;;;0.00;0.00;;;22.50;97.50;;;;;;5091996;28;20255;-70
2023/09/20 08:00:44;;;;;;;0.00;0.00;;;22.70;96.20;;;;;;5092240;28;20183;-70
2023/09/20 08:03:11;;;;;;;0.00;0.00;;;22.90;96.70;;;;;;5091991;28;20661;-70
2023/09/20 08:05:37;;;;;;;0.00;0.00;;;23.20;95.80;;;;;;5092153;28;20191;-71
2023/09/20 08:08:05;;;;;;;0.00;0.00;;;23.80;96.50;;;;;;5091824;28;20188;-70
2023/09/20 08:10:33;;;;;;;0.00;0.00;;;24.70;96.10;;;;;;5091852;28;20180;-70
2023/09/20 08:12:58;;;;;;;0.00;0.00;;;25.60;95.20;;;;;;5091985;28;20187;-70
2023/09/20 08:15:24;;;;;;;0.00;0.00;;;26.10;93.10;;;;;;5091969;28;20211;-70
2023/09/20 08:20:38;;;;;;;0.00;0.00;;;26.10;90.50;;;;;;5092288;28;20190;-70
2023/09/20 09:01:44;;;;;;;0.00;0.00;;;25.30;88.90;;;;;;5095832;28;20686;-68
2023/09/20 09:04:11;;;;;;;0.00;0.00;;;25.40;88.40;;;;;;5095297;28;20184;-68
2023/09/20 09:06:37;;;;;;;0.20;0.17;;;25.40;88.00;;;;;;5095455;28;20214;-68
2023/09/20 09:09:03;;;;;;;0.00;0.00;;;25.20;86.20;;;;;;5095362;28;20208;-68
2023/09/20 09:11:29;;;;;;;0.00;0.00;;;25.10;88.20;;;;;;5095315;28;20168;-68
2023/09/20 09:13:58;;;;;;;0.00;0.00;;;24.90;88.10;;;;;;5095410;28;20176;-68
2023/09/20 09:16:26;;;;;;;0.00;0.00;;;24.90;89.10;;;;;;5095239;28;20287;-68
2023/09/20 09:18:53;;;;;;;0.00;0.00;;;25.00;89.00;;;;;;5095076;28;20180;-68
2023/09/20 09:21:19;;;;;;;0.00;0.00;;;25.30;90.10;;;;;;5095110;28;20640;-68
2023/09/20 09:23:47;;;;;;;0.00;0.00;;;25.90;90.10;;;;;;5095114;28;20184;-68
2023/09/20 09:26:13;;;;;;;0.00;0.00;;;26.20;85.50;;;;;;5095019;28;20531;-68
2023/09/20 09:28:44;;;;;;;0.00;0.00;;;26.30;83.90;;;;;;5093922;28;20245;-68
2023/09/20 09:31:10;;;;;;;0.00;0.00;;;26.10;84.00;;;;;;5094597;28;20223;-68
2023/09/20 09:33:37;;;;;;;0.00;0.00;;;25.90;84.40;;;;;;5095094;28;20183;-68
2023/09/20 09:36:07;;;;;;;0.00;0.00;;;25.80;85.40;;;;;;5094576;28;20204;-68
2023/09/20 09:38:34;;;;;;;0.00;0.00;;;25.60;85.20;;;;;;5095064;28;20164;-68
2023/09/20 09:41:02;;;;;;;0.00;0.00;;;25.40;84.80;;;;;;5094624;28;20172;-69
2023/09/20 09:43:28;;;;;;;0.00;0.00;;;25.30;86.90;;;;;;5094721;28;20271;-68
2023/09/20 09:46:00;;;;;;;0.00;0.00;;;25.60;87.10;;;;;;5094715;28;20251;-71
2023/09/20 09:48:29;;;;;;;0.00;0.00;;;26.00;86.10;;;;;;5094668;28;20172;-71
2023/09/20 09:50:57;;;;;;;0.00;0.00;;;26.30;86.10;;;;;;5094456;28;20181;-70
2023/09/20 09:53:25;;;;;;;0.00;0.00;;;26.60;83.50;;;;;;5094347;28;20176;-71
2023/09/20 09:55:51;;;;;;;0.00;0.00;;;26.70;81.60;;;;;;5093907;28;20212;-70
2023/09/20 09:58:17;;;;;;;0.00;0.00;;;26.60;79.30;;;;;;5094483;28;20241;-70
2023/09/20 10:00:48;;;;;;;0.00;0.00;;;26.60;80.90;;;;;;5094493;28;20164;-70
2023/09/20 10:03:32;;;;;;;0.00;0.00;;;26.90;82.10;;;;;;5094404;28;20228;-70
2023/09/20 10:06:14;;;;;;;0.00;0.00;;;27.10;80.30;;;;;;5094357;28;20168;-70
2023/09/20 10:08:41;;;;;;;0.00;0.00;;;27.00;77.90;;;;;;5094314;28;20207;-70
2023/09/20 10:11:08;;;;;;;0.00;0.00;;;27.10;79.70;;;;;;5094043;28;20168;-70
2023/09/20 10:13:39;;;;;;;0.00;0.00;;;27.20;79.10;;;;;;5094250;28;20172;-70
2023/09/20 10:16:10;;;;;;;0.00;0.00;;;27.30;77.20;;;;;;5094028;28;20239;-70
2023/09/20 10:18:52;;;;;;;0.28;0.28;;;27.40;77.50;;;;;;5094031;28;20539;-70
2023/09/20 10:21:23;;;;;;;0.00;0.00;;;27.50;78.20;;;;;;5093992;28;20231;-70
2023/09/20 10:23:59;;;;;;;0.00;0.00;;;27.50;76.00;;;;;;5093759;28;20694;-70
2023/09/20 10:26:29;;;;;;;0.00;0.00;;;27.50;76.60;;;;;;5093812;28;20266;-70
2023/09/20 10:29:17;;;;;;;0.00;0.00;;;27.70;75.50;;;;;;5093869;28;20172;-70
2023/09/20 10:31:43;;;;;;;0.00;0.00;;;27.70;75.20;;;;;;5093464;28;20579;-70
2023/09/20 10:34:09;;;;;;;0.00;0.00;;;27.70;73.60;;;;;;5093546;28;20168;-70
2023/09/20 10:36:35;;;;;;;0.00;0.00;;;27.80;74.70;;;;;;5093837;28;20683;-70
2023/09/20 10:39:21;;;;;;;0.00;0.00;;;27.80;74.90;;;;;;5093288;28;20176;-67
2023/09/20 10:41:51;;;;;;;0.00;0.00;;;27.90;75.40;;;;;;5093480;28;20600;-67
2023/09/20 10:44:38;;;;;;;0.00;0.00;;;28.00;76.00;;;;;;5093258;28;20176;-67
2023/09/20 10:47:12;;;;;;;0.00;0.00;;;28.20;76.60;;;;;;5093354;28;20187;-69
2023/09/20 10:49:42;;;;;;;0.00;0.00;;;28.20;74.00;;;;;;5093595;28;20213;-69
2023/09/20 10:52:11;;;;;;;0.00;0.00;;;28.20;73.60;;;;;;5093348;28;20233;-69
2023/09/20 10:54:36;;;;;;;0.00;0.00;;;28.20;72.50;;;;;;5093353;28;20518;-69
2023/09/20 10:57:11;;;;;;;0.00;0.00;;;28.40;73.20;;;;;;5093188;28;20614;-70
2023/09/20 10:59:40;;;;;;;0.00;0.00;;;28.50;71.20;;;;;;5092139;28;20656;-70
2023/09/20 11:02:12;;;;;;;0.00;0.00;;;28.70;70.70;;;;;;5093083;28;20196;-70
2023/09/20 11:04:38;;;;;;;0.00;0.00;;;28.50;70.40;;;;;;5093329;28;20180;-70
2023/09/20 11:07:06;;;;;;;0.00;0.00;;;28.50;69.70;;;;;;5092187;28;20180;-70
2023/09/20 11:09:33;;;;;;;0.00;0.00;;;28.70;70.10;;;;;;5093144;28;20191;-70
2023/09/20 11:12:10;;;;;;;0.00;0.00;;;28.80;68.70;;;;;;5093000;28;20662;-70
2023/09/20 11:14:41;;;;;;;0.00;0.00;;;28.90;68.80;;;;;;5093136;28;20282;-70
2023/09/20 11:17:08;;;;;;;0.00;0.00;;;29.00;67.20;;;;;;5092676;28;20207;-70
2023/09/20 11:19:35;;;;;;;0.00;0.00;;;28.80;65.60;;;;;;5092935;28;20224;-70
2023/09/20 11:22:02;;;;;;;0.00;0.00;;;28.70;68.40;;;;;;5092799;28;20510;-70
2023/09/20 11:24:28;;;;;;;0.00;0.00;;;28.90;66.20;;;;;;5092816;28;20176;-70
2023/09/20 11:26:55;;;;;;;0.08;0.00;;;29.30;65.60;;;;;;5092757;28;20172;-69
2023/09/20 11:29:21;;;;;;;0.00;0.00;;;29.40;66.40;;;;;;5092805;28;20168;-70
2023/09/20 11:31:48;;;;;;;0.00;0.00;;;29.00;65.70;;;;;;5092377;28;20235;-70
2023/09/20 11:34:14;;;;;;;0.00;0.00;;;29.10;65.30;;;;;;5092591;28;20176;-70
2023/09/20 11:36:44;;;;;;;0.13;0.13;;;29.40;65.20;;;;;;5092520;28;20221;-70
2023/09/20 11:39:14;;;;;;;0.00;0.00;;;29.60;65.10;;;;;;5092492;28;20251;-70
2023/09/20 11:41:42;;;;;;;0.00;0.00;;;29.20;64.60;;;;;;5092646;28;20172;-70
2023/09/20 11:44:08;;;;;;;0.00;0.00;;;28.90;66.20;;;;;;5092307;28;20211;-70
2023/09/20 11:46:34;;;;;;;0.00;0.00;;;28.80;65.70;;;;;;5092436;28;20647;-70
2023/09/20 11:49:02;;;;;;;0.00;0.00;;;28.90;65.30;;;;;;5092211;28;20176;-70
2023/09/20 11:51:36;;;;;;;0.00;0.00;;;28.90;65.00;;;;;;5092188;28;20281;-70
2023/09/20 11:54:05;;;;;;;0.00;0.00;;;29.10;64.70;;;;;;5092132;28;20180;-70
2023/09/20 11:56:34;;;;;;;0.00;0.00;;;29.20;66.60;;;;;;5092145;28;20219;-70
2023/09/20 11:59:01;;;;;;;0.00;0.00;;;29.20;62.90;;;;;;5092287;28;20594;-70
2023/09/20 12:01:32;;;;;;;0.00;0.00;;;29.00;66.30;;;;;;5092150;28;20176;-70
2023/09/20 12:03:58;;;;;;;0.00;0.00;;;29.00;63.60;;;;;;5092121;28;20229;-70
2023/09/20 12:06:24;;;;;;;0.00;0.00;;;29.10;63.50;;;;;;5092053;28;20175;-70
2023/09/20 12:08:51;;;;;;;0.00;0.00;;;29.00;63.00;;;;;;5091855;28;20180;-70
2023/09/20 12:11:17;;;;;;;0.00;0.00;;;28.90;64.80;;;;;;5092072;28;20188;-70
2023/09/20 12:13:43;;;;;;;0.00;0.00;;;28.80;63.60;;;;;;5092085;28;20179;-69
2023/09/20 12:16:09;;;;;;;0.00;0.00;;;28.90;64.50;;;;;;5091735;28;20281;-70
2023/09/20 12:18:36;;;;;;;0.00;0.00;;;29.00;63.00;;;;;;5091581;28;20260;-70
2023/09/20 12:21:03;;;;;;;0.00;0.00;;;29.10;63.20;;;;;;5091864;28;20195;-69
2023/09/20 12:23:30;;;;;;;0.00;0.00;;;29.00;64.20;;;;;;5091850;28;20180;-69
2023/09/20 12:25:55;;;;;;;0.00;0.00;;;28.70;64.10;;;;;;5091828;28;20180;-69
2023/09/20 12:28:23;;;;;;;0.00;0.00;;;28.60;62.60;;;;;;5091911;28;20248;-70
2023/09/20 12:30:49;;;;;;;0.00;0.00;;;28.60;64.40;;;;;;5091464;28;20235;-69
2023/09/20 12:33:14;;;;;;;0.00;0.00;;;28.70;63.80;;;;;;5091781;28;20176;-70
2023/09/20 12:35:40;;;;;;;0.00;0.00;;;28.80;63.50;;;;;;5091694;28;20200;-67
2023/09/20 12:38:06;;;;;;;0.20;0.20;;;29.00;62.50;;;;;;5091733;28;20184;-68
2023/09/20 12:40:32;;;;;;;0.00;0.00;;;28.70;63.50;;;;;;5091781;28;20483;-68
2023/09/20 12:43:02;;;;;;;0.00;0.00;;;28.60;63.90;;;;;;5091582;28;20283;-68
2023/09/20 12:45:28;;;;;;;0.00;0.00;;;28.40;64.00;;;;;;5091609;28;20176;-68
2023/09/20 12:47:55;;;;;;;0.00;0.00;;;28.30;63.10;;;;;;5091561;28;20205;-68
2023/09/20 12:50:21;;;;;;;0.00;0.00;;;28.20;64.70;;;;;;5091598;28;20710;-68
2023/09/20 12:52:48;;;;;;;0.00;0.00;;;28.10;64.00;;;;;;5091534;28;20263;-67
2023/09/20 12:55:13;;;;;;;0.10;0.10;;;28.00;64.30;;;;;;5091439;28;20687;-68
2023/09/20 12:57:43;;;;;;;0.10;0.10;;;28.10;64.10;;;;;;5091666;28;20188;-70
2023/09/20 13:00:13;;;;;;;0.00;0.00;;;28.20;64.00;;;;;;5091431;28;20187;-69
2023/09/20 13:02:39;;;;;;;0.00;0.00;;;28.50;64.10;;;;;;5091576;28;20207;-70
2023/09/20 13:05:06;;;;;;;0.00;0.00;;;28.80;64.50;;;;;;5091448;28;20245;-70
2023/09/20 13:07:32;;;;;;;0.00;0.00;;;28.80;63.60;;;;;;5091512;28;20168;-69
2023/09/20 13:09:58;;;;;;;0.00;0.00;;;28.90;61.60;;;;;;5091368;28;20182;-69
2023/09/20 13:12:23;;;;;;;0.00;0.00;;;28.80;60.60;;;;;;5091476;28;20168;-69
2023/09/20 13:14:50;;;;;;;0.00;0.00;;;28.80;62.00;;;;;;5091227;28;20183;-69
2023/09/20 13:17:16;;;;;;;0.00;0.00;;;28.70;61.10;;;;;;5091578;28;20212;-69
2023/09/20 13:19:41;;;;;;;0.00;0.00;;;28.60;61.40;;;;;;5091402;28;20176;-69
2023/09/20 13:22:08;;;;;;;0.00;0.00;;;28.60;60.60;;;;;;5091178;28;20180;-69
2023/09/20 13:24:35;;;;;;;0.00;0.00;;;28.50;60.80;;;;;;5091379;28;20175;-69
2023/09/20 13:27:01;;;;;;;0.00;0.00;;;28.50;61.10;;;;;;5091283;28;20168;-69
2023/09/20 13:29:30;;;;;;;0.00;0.00;;;28.40;61.20;;;;;;5092392;28;20545;-69
2023/09/20 13:31:56;;;;;;;0.00;0.00;;;28.30;61.10;;;;;;5094830;28;20299;-70